Flight Track Log - Related Links

Times and Time Zones

All times are in EDT time to prevent confusion due to time zone crossing. See the N682RW flight status page for this flight to view local times or setup timezone preferences in your user account.

Time Position Orientation Groundspeed Altitude Reporting Facility
EDT Latitude Longitude Course Direction KTS MPH feet Rate Location/Type
Sun 06:31:02 PM 42.1869 -83.3575 181° South 180 207 1,300  Level Cleveland Center
Sun 06:32:15 PM 42.1139 -83.3600 181° South 243 280 3,500 1,970 Climbing Cleveland Center
Sun 06:33:16 PM 42.0389 -83.3594 180° South 287 330 5,700 2,262 Climbing Cleveland Center
Sun 06:34:17 PM 41.9950 -83.2764 125° Southeast 305 351 8,100 1,909 Climbing Cleveland Center
Sun 06:35:28 PM 42.0375 -83.1553 65° Northeast 331 381 9,900 870 Climbing Cleveland Center
Sun 06:36:28 PM 42.0961 -83.0486 53° Northeast 331 381 10,000 950 Climbing Cleveland Center
Sun 06:37:28 PM 42.1486 -82.9300 59° Northeast 342 394 11,800 2,000 Climbing Cleveland Center
Sun 06:38:28 PM 42.2031 -82.8117 58° Northeast 355 409 14,000 2,050 Climbing Cleveland Center
Sun 06:39:28 PM 42.2225 -82.6692 80° East 367 422 15,900 2,000 Climbing Cleveland Center
Sun 06:40:28 PM 42.2125 -82.5147 95° East 383 441 18,000 1,900 Climbing Cleveland Center
Sun 06:41:28 PM 42.2131 -82.3578 90° East 396 456 19,700 1,550 Climbing Cleveland Center
Sun 06:42:28 PM 42.2133 -82.1894 90° East 421 484 21,100 1,400 Climbing Cleveland Center
Sun 06:43:28 PM 42.2156 -82.0186 89° East 449 517 22,500 1,350 Climbing Cleveland Center
Sun 06:44:28 PM 42.2175 -81.8617 89° East 460 529 23,800 1,300 Climbing Cleveland Center
Sun 06:45:28 PM 42.2172 -81.6850 90° East 466 536 25,100 1,300 Climbing Cleveland Center
Sun 06:46:28 PM 42.2167 -81.5056 90° East 476 548 26,400 1,150 Climbing Cleveland Center
Sun 06:47:28 PM 42.2161 -81.3233 90° East 476 548 27,400 1,050 Climbing Cleveland Center
Sun 06:48:28 PM 42.2172 -81.1356 89° East 487 560 28,500 950 Climbing Cleveland Center
Sun 06:49:28 PM 42.2283 -80.9308 86° East 493 567 29,300 850 Climbing Cleveland Center
Sun 06:50:28 PM 42.2517 -80.7431 80° East 503 579 30,200 1,450 Climbing Cleveland Center
Sun 06:51:28 PM 42.2706 -80.5581 82° East 503 579 32,200 1,250 Climbing Cleveland Center
Sun 06:52:28 PM 42.2892 -80.3728 82° East 488 562 32,700 400 Climbing Cleveland Center
Sun 06:53:28 PM 42.3075 -80.1958 82° East 480 552 33,000 150 Climbing Cleveland Center
Sun 06:54:28 PM 42.3256 -80.0186 82° East 480 552 33,000  Level Cleveland Center
Sun 06:55:28 PM 42.3622 -79.8639 72° East 480 552 33,000  Level Cleveland Center
Sun 06:56:28 PM 42.4067 -79.6919 71° East 480 552 33,000  Level Cleveland Center
Sun 06:57:28 PM 42.4492 -79.5225 71° East 480 552 33,000  Level Cleveland Center
Sun 06:58:28 PM 42.4994 -79.3497 68° East 485 558 33,000  Level Cleveland Center
Sun 06:59:28 PM 42.5392 -79.1800 72° East 485 558 33,000  Level Cleveland Center
Sun 07:00:28 PM 42.5642 -79.0017 79° East 480 552 33,000  Level Cleveland Center
Sun 07:01:28 PM 42.5886 -78.8292 79° East 472 543 33,000  Level Cleveland Center
Sun 07:02:28 PM 42.6089 -78.6564 81° East 466 536 33,000  Level Cleveland Center
Sun 07:03:28 PM 42.6203 -78.4756 85° East 471 542 33,000  Level Cleveland Center
Sun 07:04:28 PM 42.6292 -78.2944 86° East 477 549 33,000  Level Cleveland Center
Sun 07:05:28 PM 42.6400 -78.1106 85° East 482 555 33,000  Level Cleveland Center
Sun 07:06:28 PM 42.6464 -77.9242 87° East 487 560 33,000  Level Cleveland Center
Sun 07:07:28 PM 42.6497 -77.7178 89° East 492 566 33,000 -50 Level Cleveland Center
Sun 07:08:27 PM 42.6575 -77.5339 87° East 497 572 32,900  Descending Cleveland Center
Sun 07:09:27 PM 42.6650 -77.3444 87° East 497 572 33,000 33 Climbing Cleveland Center
Sun 07:11:30 PM 42.6828 -76.9825 86° East 493 567 33,000  Level Boston Center
Sun 07:12:28 PM 42.6939 -76.8053 85° East 483 556 33,000  Level Boston Center
Sun 07:13:30 PM 42.7050 -76.6167 85° East 483 556 33,000  Level Boston Center
Sun 07:14:28 PM 42.7178 -76.4367 84° East 483 556 33,000  Level Boston Center
Sun 07:15:29 PM 42.7303 -76.2536 85° East 483 556 33,000 -49 Level Boston Center
Sun 07:16:31 PM 42.7425 -76.0733 85° East 483 556 32,900 -50 Descending Boston Center
Sun 07:17:28 PM 42.7567 -75.8875 84° East 478 550 32,900 -205 Level Boston Center
Sun 07:18:28 PM 42.7703 -75.7042 84° East 478 550 32,500 -645 Descending Boston Center
Sun 07:19:29 PM 42.7708 -75.5403 90° East 478 550 31,600 -744 Descending Boston Center
Sun 07:20:29 PM 42.7694 -75.3533 91° East 478 550 31,000 -353 Descending Boston Center
Sun 07:21:28 PM 42.7678 -75.1694 91° East 478 550 30,900  Descending Boston Center
Sun 07:22:28 PM 42.7661 -74.9769 91° East 489 563 31,000 50 Climbing Boston Center
Sun 07:23:29 PM 42.7636 -74.7931 91° East 489 563 31,000  Level Boston Center
Sun 07:24:30 PM 42.7611 -74.6064 91° East 495 570 31,000  Level Boston Center
Sun 07:25:31 PM 42.7583 -74.4139 91° East 501 577 31,000  Level Boston Center
Sun 07:26:29 PM 42.7553 -74.2328 91° East 494 568 31,000 -51 Level Boston Center
Sun 07:27:29 PM 42.7539 -74.0461 91° East 489 563 30,900  Descending Boston Center
Sun 07:28:30 PM 42.7478 -73.8650 93° East 484 557 31,000 50 Climbing Boston Center
Sun 07:29:30 PM 42.7375 -73.6867 94° East 478 550 31,000  Level Boston Center
Sun 07:30:30 PM 42.7183 -73.5056 98° East 478 550 31,000  Level Boston Center
Sun 07:31:28 PM 42.6992 -73.3214 98° East 484 557 31,000 -101 Level Boston Center
Sun 07:32:29 PM 42.6797 -73.1378 98° East 484 557 30,800 -1,230 Descending Boston Center
Sun 07:33:30 PM 42.6556 -72.9342 99° East 489 563 28,500 -2,262 Descending Boston Center
Sun 07:34:31 PM 42.6356 -72.7589 99° East 483 556 26,200 -2,218 Descending Boston Center
Sun 07:35:29 PM 42.6211 -72.6150 98° East 466 536 24,100 -2,288 Descending Boston Center
Sun 07:36:29 PM 42.6047 -72.4258 97° East 448 516 21,700 -2,164 Descending Boston Center
Sun 07:37:31 PM 42.5900 -72.3019 99° East 439 505 19,700 -2,218 Descending Boston Center
Sun 07:38:28 PM 42.5689 -72.1414 100° East 407 468 17,300 -2,339 Descending Boston Center
Sun 07:39:29 PM 42.5517 -71.9806 98° East 390 449 15,100 -2,049 Descending Boston Center
Sun 07:40:31 PM 42.5364 -71.8542 99° East 385 443 13,100 -2,050 Descending Boston Center
Sun 07:41:29 PM 42.5169 -71.7050 100° East 375 432 11,000 -1,086 Descending Boston Center
Sun 07:42:27 PM 42.5000 -71.5667 99° East 365 420 11,000  Level KA90
Sun 07:43:27 PM 42.4833 -71.4333 100° East 366 421 11,000 -238 Level KA90
Sun 07:44:33 PM 42.4833 -71.3000 90° East 314 361 10,500 -909 Descending KA90
Sun 07:45:39 PM 42.4667 -71.1667 100° East 299 344 9,000 -1,278 Descending KA90
Sun 07:46:21 PM 42.4500 -71.1000 109° East 290 334 8,200 -941 Descending KA90
Sun 07:47:21 PM 42.4500 -71.0000 90° East 270 311 7,400 -1,050 Descending KA90
Sun 07:48:21 PM 42.4667 -70.9167 75° East 245 282 6,100 -1,400 Descending KA90
Sun 07:49:21 PM 42.4833 -70.8167 77° East 244 281 4,600 -1,100 Descending KA90
Sun 07:50:21 PM 42.5000 -70.7333 75° East 227 261 3,900 -800 Descending KA90
Sun 07:51:21 PM 42.4500 -70.7000 154° Southeast 195 224 3,000 -465 Descending KA90
Sun 07:52:30 PM 42.4125 -70.7331 213° Southwest 112 129 2,900 -141 Descending Boston Center
Sun 07:53:29 PM 42.3947 -70.7928 248° West 117 135 2,700 -504 Descending Boston Center
Sun 07:54:29 PM 42.3853 -70.8575 259° West 149 171 1,900 -906 Descending Boston Center
Sun 07:55:15 PM 42.3833 -70.9000 266° West 160 184 1,100 -750 Descending KA90
Sun 07:56:21 PM 42.3667 -70.9500 246° West 131 151 500 -545 Descending KA90

Login

Don't have an account? Register now (free) for customized features, flight alerts, and more!